createdAt,value
2023-05-19T00:00:34.564Z,71.45
2023-05-19T00:01:34.228Z,71.66
2023-05-19T00:02:34.356Z,72.17
2023-05-19T00:03:34.304Z,72.17
2023-05-19T00:04:34.213Z,71.86
2023-05-19T00:05:34.230Z,71.97
2023-05-19T00:06:34.238Z,72.17
2023-05-19T00:07:34.192Z,71.86
2023-05-19T00:08:34.332Z,71.86
2023-05-19T00:09:34.162Z,71.97
2023-05-19T00:10:34.336Z,72.07
2023-05-19T00:11:34.151Z,72.17
2023-05-19T00:12:34.164Z,72.52
2023-05-19T00:13:34.130Z,72.28
2023-05-19T00:14:34.133Z,71.97
2023-05-19T00:15:34.184Z,71.86
2023-05-19T00:16:34.254Z,71.97
2023-05-19T00:17:34.158Z,72.07
2023-05-19T00:18:34.094Z,71.86
2023-05-19T00:19:34.079Z,72.52
2023-05-19T00:20:34.425Z,72.92
2023-05-19T00:21:34.060Z,72.82
2023-05-19T00:22:34.077Z,72.82
2023-05-19T00:23:34.080Z,72.61
2023-05-19T00:24:34.071Z,72.72
2023-05-19T00:25:34.040Z,72.92
2023-05-19T00:26:34.033Z,73.13
2023-05-19T00:27:34.012Z,73.54
2023-05-19T00:28:34.018Z,73.33
2023-05-19T00:29:34.057Z,73.95
2023-05-19T00:30:34.167Z,73.36
2023-05-19T00:31:34.356Z,74.60
2023-05-19T00:32:34.034Z,74.05
2023-05-19T00:33:34.008Z,73.78
2023-05-19T00:34:33.973Z,73.98
2023-05-19T00:35:34.258Z,73.68
2023-05-19T00:36:33.965Z,74.49
2023-05-19T00:37:33.944Z,73.68
2023-05-19T00:38:33.948Z,73.91
2023-05-19T00:39:33.932Z,74.29
2023-05-19T00:40:34.147Z,74.32
2023-05-19T00:41:33.920Z,75.04
2023-05-19T00:42:33.926Z,74.49
2023-05-19T00:43:33.900Z,74.73
2023-05-19T00:44:33.885Z,75.15
2023-05-19T00:45:33.869Z,75.24
2023-05-19T00:46:33.941Z,75.35
2023-05-19T00:47:33.936Z,75.56
2023-05-19T00:48:33.876Z,75.76
2023-05-19T00:49:33.837Z,75.69
2023-05-19T00:50:34.060Z,75.86
2023-05-19T00:51:33.836Z,75.45
2023-05-19T00:52:33.852Z,75.76
2023-05-19T00:53:33.811Z,75.24
2023-05-19T00:54:33.825Z,76.07
2023-05-19T00:55:33.803Z,76.00
2023-05-19T00:56:33.865Z,76.41
2023-05-19T00:57:33.779Z,76.62
2023-05-19T00:58:33.806Z,76.62
2023-05-19T00:59:33.764Z,76.72
2023-05-19T01:00:34.010Z,77.03
2023-05-19T01:01:33.852Z,76.92
2023-05-19T01:02:33.811Z,77.23
2023-05-19T01:03:33.793Z,77.23
2023-05-19T01:04:33.756Z,77.03
2023-05-19T01:05:33.712Z,77.98
2023-05-19T01:06:33.712Z,77.58
2023-05-19T01:07:33.689Z,77.78
2023-05-19T01:08:33.706Z,77.68
2023-05-19T01:09:33.724Z,77.88
2023-05-19T01:10:33.861Z,78.09
2023-05-19T01:11:33.658Z,78.29
2023-05-19T01:12:33.656Z,78.09
2023-05-19T01:13:33.651Z,78.12
2023-05-19T01:14:33.648Z,78.23
2023-05-19T01:15:33.694Z,78.64
2023-05-19T01:16:33.701Z,78.64
2023-05-19T01:17:33.660Z,78.94
2023-05-19T01:18:33.621Z,79.15
2023-05-19T01:19:33.591Z,79.25
2023-05-19T01:20:33.833Z,79.49
2023-05-19T01:21:33.611Z,80.21
2023-05-19T01:22:33.582Z,79.91
2023-05-19T01:23:33.566Z,79.39
2023-05-19T01:24:33.573Z,79.80
2023-05-19T01:25:33.536Z,80.63
2023-05-19T01:26:33.597Z,80.66
2023-05-19T01:27:33.532Z,80.46
2023-05-19T01:28:33.527Z,80.25
2023-05-19T01:29:33.525Z,80.56
2023-05-19T01:30:33.702Z,81.28
2023-05-19T01:31:33.554Z,81.07
2023-05-19T01:32:34.249Z,80.97
2023-05-19T01:33:33.492Z,81.21
2023-05-19T01:34:33.500Z,81.42
2023-05-19T01:35:33.482Z,82.24
2023-05-19T01:36:33.476Z,82.18
2023-05-19T01:37:33.455Z,83.11
2023-05-19T01:38:33.509Z,83.55
2023-05-19T01:39:33.431Z,83.76
2023-05-19T01:40:33.706Z,83.65
2023-05-19T01:41:33.413Z,84.07
2023-05-19T01:42:33.525Z,84.83
2023-05-19T01:43:33.429Z,84.69
2023-05-19T01:44:33.432Z,84.48
2023-05-19T01:45:33.503Z,84.72
2023-05-19T01:46:33.423Z,84.69
2023-05-19T01:47:33.400Z,84.83
2023-05-19T01:48:33.385Z,85.65
2023-05-19T01:49:33.366Z,85.65
2023-05-19T01:50:33.861Z,86.16
2023-05-19T01:51:33.409Z,86.31
2023-05-19T01:52:33.435Z,86.82
2023-05-19T01:53:33.323Z,86.52
2023-05-19T01:54:33.347Z,86.72
2023-05-19T01:55:33.320Z,86.82
2023-05-19T01:56:33.347Z,86.93
2023-05-19T01:57:33.295Z,86.82
2023-05-19T01:58:33.295Z,86.61
2023-05-19T01:59:33.284Z,86.72
2023-05-19T02:00:33.549Z,86.61
2023-05-19T02:01:33.295Z,86.82
2023-05-19T02:02:33.309Z,87.27
2023-05-19T02:03:33.272Z,87.48
2023-05-19T02:04:33.320Z,87.99
2023-05-19T02:05:33.283Z,88.45
2023-05-19T02:06:33.236Z,88.10
2023-05-19T02:07:33.211Z,88.51
2023-05-19T02:08:33.242Z,88.82
2023-05-19T02:09:33.196Z,88.92
2023-05-19T02:10:33.360Z,89.28
2023-05-19T02:11:33.170Z,90.31
2023-05-19T02:12:33.179Z,89.89
2023-05-19T02:13:33.186Z,89.69
2023-05-19T02:14:33.174Z,89.89
2023-05-19T02:15:33.165Z,90.51
2023-05-19T02:16:33.135Z,89.89
2023-05-19T02:17:33.263Z,90.20
2023-05-19T02:18:33.141Z,90.25
2023-05-19T02:19:33.157Z,90.20
2023-05-19T02:20:33.492Z,91.79
2023-05-19T02:21:33.107Z,90.82
2023-05-19T02:22:33.088Z,90.76
2023-05-19T02:23:33.093Z,90.86
2023-05-19T02:24:33.116Z,91.07
2023-05-19T02:25:33.075Z,90.45
2023-05-19T02:26:33.058Z,90.35
2023-05-19T02:27:33.070Z,90.97
2023-05-19T02:28:33.033Z,92.00
2023-05-19T02:29:33.039Z,92.00
2023-05-19T02:30:33.231Z,92.00
2023-05-19T02:31:33.149Z,91.38
2023-05-19T02:32:33.114Z,91.28
2023-05-19T02:33:33.003Z,91.38
2023-05-19T02:34:33.001Z,91.89
2023-05-19T02:35:32.989Z,91.63
2023-05-19T02:36:32.985Z,91.42
2023-05-19T02:37:32.965Z,91.52
2023-05-19T02:38:32.991Z,91.83
2023-05-19T02:39:32.951Z,91.42
2023-05-19T02:40:33.194Z,91.63
2023-05-19T02:41:32.954Z,91.83
2023-05-19T02:42:32.975Z,92.14
2023-05-19T02:43:32.920Z,91.63
2023-05-19T02:44:32.903Z,92.60
2023-05-19T02:45:32.901Z,92.55
2023-05-19T02:46:32.960Z,93.12
2023-05-19T02:47:34.676Z,92.50
2023-05-19T02:48:32.879Z,94.04
2023-05-19T02:49:32.902Z,93.73
2023-05-19T02:50:33.064Z,93.53
2023-05-19T02:51:32.848Z,93.63
2023-05-19T02:52:32.845Z,93.63
2023-05-19T02:53:32.887Z,93.88
2023-05-19T02:54:32.819Z,93.63
2023-05-19T02:55:32.819Z,93.53
2023-05-19T02:56:32.868Z,93.94
2023-05-19T02:57:32.799Z,94.04
2023-05-19T02:58:32.777Z,93.98
2023-05-19T02:59:32.769Z,93.78
2023-05-19T03:00:32.986Z,94.09
2023-05-19T03:01:32.791Z,94.09
2023-05-19T03:02:32.800Z,94.09
2023-05-19T03:03:32.797Z,93.88
2023-05-19T03:04:32.766Z,94.50
2023-05-19T03:05:32.726Z,94.75
2023-05-19T03:06:32.708Z,94.92
2023-05-19T03:07:32.735Z,94.50
2023-05-19T03:08:32.736Z,95.27
2023-05-19T03:09:32.698Z,95.02
2023-05-19T03:10:32.837Z,95.06
2023-05-19T03:11:32.682Z,95.17
2023-05-19T03:12:32.655Z,95.27
2023-05-19T03:13:32.667Z,95.17
2023-05-19T03:14:32.683Z,94.96
2023-05-19T03:15:32.623Z,95.37
2023-05-19T03:16:32.646Z,94.96
2023-05-19T03:17:32.699Z,94.85
2023-05-19T03:18:32.594Z,94.75
2023-05-19T03:19:32.605Z,94.44
2023-05-19T03:20:32.969Z,95.06
2023-05-19T03:21:32.599Z,95.37
2023-05-19T03:22:32.565Z,96.09
2023-05-19T03:23:32.565Z,96.24
2023-05-19T03:24:32.556Z,96.45
2023-05-19T03:25:32.545Z,96.34
2023-05-19T03:26:32.561Z,96.76
2023-05-19T03:27:32.532Z,96.97
2023-05-19T03:28:32.511Z,97.28
2023-05-19T03:29:32.521Z,97.53
2023-05-19T03:30:32.806Z,96.66
2023-05-19T03:31:32.508Z,96.97
2023-05-19T03:32:32.579Z,96.66
2023-05-19T03:33:32.515Z,95.99
2023-05-19T03:34:32.476Z,96.09
2023-05-19T03:35:32.471Z,95.48
2023-05-19T03:36:32.454Z,95.32
2023-05-19T03:37:32.459Z,94.60
2023-05-19T03:38:32.483Z,94.65
2023-05-19T03:39:32.436Z,94.54
2023-05-19T03:40:32.616Z,94.75
2023-05-19T03:41:32.414Z,94.60
2023-05-19T03:42:32.414Z,94.65
2023-05-19T03:43:32.402Z,94.44
2023-05-19T03:44:32.453Z,94.75
2023-05-19T03:45:32.405Z,95.06
2023-05-19T03:46:32.371Z,95.73
2023-05-19T03:47:32.497Z,95.78
2023-05-19T03:48:32.358Z,96.30
2023-05-19T03:49:32.359Z,96.14
2023-05-19T03:50:32.659Z,95.94
2023-05-19T03:51:32.374Z,96.09
2023-05-19T03:52:32.332Z,95.89
2023-05-19T03:53:32.347Z,96.34
2023-05-19T03:54:32.308Z,96.76
2023-05-19T03:55:32.359Z,96.66
2023-05-19T03:56:32.329Z,96.34
2023-05-19T03:57:32.279Z,96.34
2023-05-19T03:58:32.273Z,96.86
2023-05-19T03:59:32.275Z,96.59
2023-05-19T04:00:32.555Z,96.76
2023-05-19T04:01:32.281Z,96.03
2023-05-19T04:02:32.330Z,96.39
2023-05-19T04:03:32.337Z,96.14
2023-05-19T04:04:32.266Z,96.24
2023-05-19T04:05:32.271Z,96.03
2023-05-19T04:06:32.220Z,95.83
2023-05-19T04:07:32.271Z,96.34
2023-05-19T04:08:32.197Z,96.34
2023-05-19T04:09:32.214Z,95.83
2023-05-19T04:10:32.330Z,96.24
2023-05-19T04:11:32.185Z,95.99
2023-05-19T04:12:32.158Z,96.20
2023-05-19T04:13:32.177Z,95.89
2023-05-19T04:14:32.142Z,95.68
2023-05-19T04:15:32.165Z,94.96
2023-05-19T04:16:32.181Z,94.29
2023-05-19T04:17:32.165Z,94.75
2023-05-19T04:18:32.153Z,94.96
2023-05-19T04:19:32.215Z,94.75
2023-05-19T04:20:32.183Z,94.13
2023-05-19T04:21:32.093Z,93.78
2023-05-19T04:22:32.105Z,93.62
2023-05-19T04:23:32.116Z,93.57
2023-05-19T04:24:32.055Z,93.82
2023-05-19T04:25:32.078Z,93.93
2023-05-19T04:26:32.049Z,94.03
2023-05-19T04:27:32.117Z,94.13
2023-05-19T04:28:32.075Z,94.34
2023-05-19T04:29:32.034Z,94.34
2023-05-19T04:30:32.174Z,94.03
2023-05-19T04:31:32.052Z,94.09
2023-05-19T04:32:32.015Z,94.19
2023-05-19T04:33:31.995Z,93.73
2023-05-19T04:34:31.995Z,92.13
2023-05-19T04:35:32.028Z,92.64
2023-05-19T04:36:31.954Z,92.29
2023-05-19T04:37:31.950Z,91.77
2023-05-19T04:38:31.932Z,90.70
2023-05-19T04:39:31.938Z,90.66
2023-05-19T04:40:32.406Z,90.14
2023-05-19T04:41:31.925Z,90.08
2023-05-19T04:42:31.914Z,90.00
2023-05-19T04:43:31.935Z,88.89
2023-05-19T04:44:31.898Z,86.99
2023-05-19T04:45:31.886Z,85.71
2023-05-19T04:46:31.957Z,84.64
2023-05-19T04:47:31.958Z,83.03
2023-05-19T04:48:31.840Z,83.37
2023-05-19T04:49:31.860Z,83.64
2023-05-19T04:50:31.952Z,82.89
2023-05-19T04:51:31.844Z,82.13
2023-05-19T04:52:31.944Z,80.76
2023-05-19T04:53:31.878Z,80.35
2023-05-19T04:54:31.816Z,80.58
2023-05-19T04:55:31.810Z,81.43
2023-05-19T04:56:31.791Z,79.69
2023-05-19T04:57:31.798Z,80.96
2023-05-19T04:58:31.857Z,81.30
2023-05-19T04:59:31.774Z,82.20
2023-05-19T05:00:31.886Z,83.29
2023-05-19T05:01:31.798Z,80.65
2023-05-19T05:02:31.749Z,79.24
2023-05-19T05:03:31.782Z,78.25
2023-05-19T05:04:31.730Z,77.09
2023-05-19T05:05:31.732Z,76.27
2023-05-19T05:06:31.764Z,76.84
2023-05-19T05:07:32.640Z,74.32
2023-05-19T05:08:31.688Z,74.63
2023-05-19T05:09:31.689Z,75.93
2023-05-19T05:10:31.929Z,77.02
2023-05-19T05:11:31.703Z,79.52
2023-05-19T05:12:31.658Z,78.24
2023-05-19T05:13:31.654Z,76.57
2023-05-19T05:14:31.633Z,75.85
2023-05-19T05:15:31.645Z,74.76
2023-05-19T05:16:31.642Z,75.10
2023-05-19T05:17:31.711Z,73.27
2023-05-19T05:18:31.601Z,74.49
2023-05-19T05:19:31.723Z,75.34
2023-05-19T05:20:31.876Z,72.79
2023-05-19T05:21:31.864Z,71.60
2023-05-19T05:22:31.584Z,69.90
2023-05-19T05:23:31.561Z,68.75
2023-05-19T05:24:31.555Z,70.00
2023-05-19T05:25:31.752Z,67.49
2023-05-19T05:26:31.604Z,67.93
2023-05-19T05:27:31.546Z,67.49
2023-05-19T05:28:31.571Z,68.31
2023-05-19T05:29:31.520Z,67.52
2023-05-19T05:30:31.511Z,69.76
2023-05-19T05:31:31.506Z,67.13
2023-05-19T05:32:31.509Z,64.35
2023-05-19T05:33:31.542Z,65.19
2023-05-19T05:34:31.485Z,64.76
2023-05-19T05:35:31.625Z,65.74
2023-05-19T05:36:31.475Z,65.00
2023-05-19T05:37:31.466Z,63.60
2023-05-19T05:38:31.472Z,61.79
2023-05-19T05:39:31.491Z,62.63
2023-05-19T05:40:31.451Z,63.68
2023-05-19T05:41:31.436Z,62.13
2023-05-19T05:42:31.422Z,65.44
2023-05-19T05:43:31.439Z,65.33
2023-05-19T05:44:31.395Z,63.51
2023-05-19T05:45:31.639Z,66.61
2023-05-19T05:46:31.419Z,67.02
2023-05-19T05:47:31.466Z,67.32
2023-05-19T05:48:31.383Z,68.13
2023-05-19T05:49:31.389Z,68.92
2023-05-19T05:50:31.392Z,67.94
2023-05-19T05:51:31.381Z,65.30
2023-05-19T05:52:31.343Z,65.33
2023-05-19T05:53:31.345Z,64.33
2023-05-19T05:54:31.338Z,62.13
2023-05-19T05:55:31.521Z,63.75
2023-05-19T05:56:31.368Z,64.93
2023-05-19T05:57:31.330Z,65.23
2023-05-19T05:58:31.305Z,64.42
2023-05-19T05:59:31.307Z,63.20
2023-05-19T06:00:31.481Z,63.24
2023-05-19T06:01:32.170Z,62.63
2023-05-19T06:02:31.352Z,63.48
2023-05-19T06:03:31.273Z,64.49
2023-05-19T06:04:31.250Z,63.45
2023-05-19T06:05:31.392Z,63.54
2023-05-19T06:06:31.240Z,64.62
2023-05-19T06:07:31.248Z,64.49
2023-05-19T06:08:31.331Z,62.53
2023-05-19T06:09:31.228Z,63.55
2023-05-19T06:10:31.424Z,62.33
2023-05-19T06:11:31.203Z,64.42
2023-05-19T06:12:31.222Z,63.55
2023-05-19T06:13:31.191Z,63.34
2023-05-19T06:14:31.188Z,63.30
2023-05-19T06:15:31.310Z,63.64
2023-05-19T06:16:31.185Z,63.40
2023-05-19T06:17:31.215Z,64.18
2023-05-19T06:18:31.140Z,63.48
2023-05-19T06:19:31.165Z,63.58
2023-05-19T06:20:31.285Z,60.72
2023-05-19T06:21:31.134Z,62.04
2023-05-19T06:22:31.130Z,60.01
2023-05-19T06:23:31.125Z,62.02
2023-05-19T06:24:31.090Z,61.68
2023-05-19T06:25:31.232Z,63.71
2023-05-19T06:26:31.637Z,63.33
2023-05-19T06:27:33.226Z,62.94
2023-05-19T06:28:31.086Z,60.86
2023-05-19T06:29:31.047Z,59.34
2023-05-19T06:30:31.106Z,59.34
2023-05-19T06:31:31.239Z,60.40
2023-05-19T06:32:31.122Z,62.05
2023-05-19T06:33:31.013Z,59.77
2023-05-19T06:34:31.016Z,61.72
2023-05-19T06:35:31.217Z,62.05
2023-05-19T06:36:30.991Z,62.16
2023-05-19T06:37:31.249Z,62.14
2023-05-19T06:38:31.023Z,65.97
2023-05-19T06:39:30.977Z,64.01
2023-05-19T06:40:32.217Z,62.27
2023-05-19T06:41:30.927Z,63.72
2023-05-19T06:42:30.932Z,63.11
2023-05-19T06:43:31.019Z,61.68
2023-05-19T06:44:30.968Z,63.71
2023-05-19T06:45:30.899Z,62.81
2023-05-19T06:46:30.952Z,61.16
2023-05-19T06:47:30.899Z,61.36
2023-05-19T06:48:30.996Z,61.49
2023-05-19T06:49:30.940Z,60.49
2023-05-19T06:50:31.100Z,59.99
2023-05-19T06:51:30.873Z,61.25
2023-05-19T06:52:31.863Z,63.04
2023-05-19T06:53:30.860Z,62.66
2023-05-19T06:54:31.194Z,62.46
2023-05-19T06:55:31.034Z,60.20
2023-05-19T06:56:30.851Z,61.85
2023-05-19T06:57:30.911Z,63.13
2023-05-19T06:58:30.810Z,63.21
2023-05-19T06:59:31.032Z,61.59
2023-05-19T07:00:30.916Z,61.72
2023-05-19T07:01:30.802Z,61.49
2023-05-19T07:02:30.951Z,59.38
2023-05-19T07:03:31.103Z,58.67
2023-05-19T07:04:30.761Z,57.78
2023-05-19T07:05:30.751Z,58.44
2023-05-19T07:06:30.767Z,60.11
2023-05-19T07:07:30.724Z,59.56
2023-05-19T07:08:30.734Z,62.46
2023-05-19T07:09:30.891Z,62.46
2023-05-19T07:10:30.890Z,61.66
2023-05-19T07:11:30.685Z,59.55
2023-05-19T07:12:30.725Z,59.85
2023-05-19T07:13:30.828Z,59.53
2023-05-19T07:14:30.688Z,59.88
2023-05-19T07:15:30.646Z,58.74
2023-05-19T07:16:30.680Z,57.91
2023-05-19T07:17:30.639Z,60.47
2023-05-19T07:18:30.691Z,59.50
2023-05-19T07:19:30.771Z,59.48
2023-05-19T07:20:30.861Z,58.90
2023-05-19T07:21:30.592Z,59.69
2023-05-19T07:22:30.666Z,60.53
2023-05-19T07:23:30.591Z,60.50
2023-05-19T07:24:30.610Z,61.63
2023-05-19T07:25:30.567Z,58.74
2023-05-19T07:26:30.566Z,57.96
2023-05-19T07:27:30.624Z,58.61
2023-05-19T07:28:30.577Z,59.81
2023-05-19T07:29:30.554Z,58.67
2023-05-19T07:30:30.805Z,58.80
2023-05-19T07:31:30.536Z,58.76
2023-05-19T07:32:30.549Z,59.41
2023-05-19T07:33:30.504Z,60.04
2023-05-19T07:34:30.543Z,60.35
2023-05-19T07:35:30.494Z,59.46
2023-05-19T07:36:30.489Z,58.62
2023-05-19T07:37:30.500Z,58.59
2023-05-19T07:38:30.498Z,58.85
2023-05-19T07:39:30.462Z,59.69
2023-05-19T07:40:30.588Z,59.66
2023-05-19T07:41:30.427Z,58.67
2023-05-19T07:42:30.437Z,58.22
2023-05-19T07:43:30.420Z,58.62
2023-05-19T07:44:30.430Z,59.26
2023-05-19T07:45:30.406Z,59.74
2023-05-19T07:46:30.509Z,59.25
2023-05-19T07:47:30.401Z,57.29
2023-05-19T07:48:30.456Z,61.71
2023-05-19T07:49:30.360Z,57.73
2023-05-19T07:50:30.491Z,57.55
2023-05-19T07:51:30.371Z,59.48
2023-05-19T07:52:30.387Z,59.38
2023-05-19T07:53:30.477Z,58.67
2023-05-19T07:54:30.333Z,61.65
2023-05-19T07:55:30.326Z,59.12
2023-05-19T07:56:30.903Z,56.69
2023-05-19T07:57:30.319Z,57.70
2023-05-19T07:58:30.344Z,56.79
2023-05-19T07:59:30.296Z,57.02
2023-05-19T08:00:30.756Z,57.50
2023-05-19T08:01:30.297Z,56.08
2023-05-19T08:02:30.367Z,56.97
2023-05-19T08:03:31.173Z,59.30
2023-05-19T08:04:30.289Z,57.96
2023-05-19T08:05:30.243Z,58.51
2023-05-19T08:06:30.231Z,57.29
2023-05-19T08:07:30.230Z,54.76
2023-05-19T08:08:30.247Z,57.35
2023-05-19T08:09:30.186Z,57.83
2023-05-19T08:10:30.320Z,57.73
2023-05-19T08:11:30.180Z,57.78
2023-05-19T08:12:30.224Z,54.82
2023-05-19T08:13:30.184Z,55.37
2023-05-19T08:14:30.417Z,56.96
2023-05-19T08:15:30.167Z,56.61
2023-05-19T08:16:30.517Z,59.38
2023-05-19T08:17:30.191Z,57.73
2023-05-19T08:18:30.158Z,58.07
2023-05-19T08:19:30.251Z,57.65
2023-05-19T08:20:30.307Z,58.07
2023-05-19T08:21:31.623Z,57.54
2023-05-19T08:22:30.095Z,58.40
2023-05-19T08:23:30.086Z,56.81
2023-05-19T08:24:30.084Z,55.02
2023-05-19T08:25:30.139Z,56.02
2023-05-19T08:26:30.608Z,57.44
2023-05-19T08:27:30.746Z,55.24
2023-05-19T08:28:30.052Z,55.47
2023-05-19T08:29:30.037Z,56.71
2023-05-19T08:30:30.034Z,56.89
2023-05-19T08:31:30.081Z,55.65
2023-05-19T08:32:30.079Z,54.74
2023-05-19T08:33:30.043Z,54.74
2023-05-19T08:34:30.010Z,55.47
2023-05-19T08:35:30.938Z,56.46
2023-05-19T08:36:30.004Z,54.86
2023-05-19T08:37:31.418Z,56.59
2023-05-19T08:38:30.000Z,57.29
2023-05-19T08:39:30.873Z,56.59
2023-05-19T08:40:30.058Z,56.69
2023-05-19T08:41:29.934Z,56.10
2023-05-19T08:42:29.995Z,57.29
2023-05-19T08:43:31.242Z,57.65
2023-05-19T08:44:29.944Z,54.64
2023-05-19T08:45:30.092Z,55.35
2023-05-19T08:46:30.866Z,54.91
2023-05-19T08:47:31.119Z,55.80
2023-05-19T08:48:30.055Z,55.27
2023-05-19T08:49:29.913Z,55.47
2023-05-19T08:50:29.903Z,54.56
2023-05-19T08:51:29.860Z,55.69
2023-05-19T08:52:29.874Z,56.02
2023-05-19T08:53:33.051Z,56.84
2023-05-19T08:54:29.859Z,54.69
2023-05-19T08:55:29.913Z,55.75
2023-05-19T08:56:29.865Z,54.49
2023-05-19T08:57:29.804Z,55.80
2023-05-19T08:58:29.841Z,56.71
2023-05-19T08:59:29.793Z,55.09
2023-05-19T09:00:29.822Z,54.71
2023-05-19T09:01:29.847Z,55.15
2023-05-19T09:02:29.826Z,56.00
2023-05-19T09:03:29.812Z,54.49
2023-05-19T09:04:30.249Z,56.91
2023-05-19T09:05:29.768Z,55.85
2023-05-19T09:06:29.789Z,53.09
2023-05-19T09:07:29.720Z,54.66
2023-05-19T09:08:29.863Z,54.36
2023-05-19T09:09:29.702Z,54.76
2023-05-19T09:10:29.718Z,54.74
2023-05-19T09:11:29.740Z,55.77
2023-05-19T09:12:29.699Z,53.72
2023-05-19T09:13:29.684Z,54.31
2023-05-19T09:14:29.767Z,53.55
2023-05-19T09:15:29.677Z,53.65
2023-05-19T09:16:30.326Z,52.74
2023-05-19T09:17:29.696Z,54.08
2023-05-19T09:18:29.634Z,54.82
2023-05-19T09:19:29.757Z,53.98
2023-05-19T09:20:29.668Z,53.65
2023-05-19T09:21:29.643Z,54.16
2023-05-19T09:22:29.771Z,54.38
2023-05-19T09:23:29.665Z,54.82
2023-05-19T09:24:29.689Z,55.09
2023-05-19T09:25:29.574Z,55.69
2023-05-19T09:26:29.584Z,56.10
2023-05-19T09:27:29.572Z,54.58
2023-05-19T09:28:29.594Z,54.79
2023-05-19T09:29:29.592Z,55.11
2023-05-19T09:30:31.426Z,54.41
2023-05-19T09:31:29.560Z,56.02
2023-05-19T09:32:29.736Z,56.02
2023-05-19T09:33:29.566Z,56.20
2023-05-19T09:34:29.552Z,54.76
2023-05-19T09:35:29.518Z,56.78
2023-05-19T09:36:29.502Z,55.19
2023-05-19T09:37:29.482Z,55.29
2023-05-19T09:38:29.506Z,55.73
2023-05-19T09:39:29.490Z,55.22
2023-05-19T09:40:29.474Z,55.40
2023-05-19T09:41:29.456Z,53.67
2023-05-19T09:42:29.445Z,54.21
2023-05-19T09:43:29.450Z,54.16
2023-05-19T09:44:29.671Z,54.83
2023-05-19T09:45:29.469Z,54.10
2023-05-19T09:46:29.534Z,54.16
2023-05-19T09:47:29.460Z,54.71
2023-05-19T09:48:29.407Z,55.74
2023-05-19T09:49:29.468Z,54.13
2023-05-19T09:50:29.389Z,54.25
2023-05-19T09:51:29.373Z,52.44
2023-05-19T09:52:29.477Z,53.12
2023-05-19T09:53:29.348Z,54.05
2023-05-19T09:54:29.439Z,53.42
2023-05-19T09:55:29.351Z,55.27
2023-05-19T09:56:29.353Z,56.85
2023-05-19T09:57:29.324Z,55.66
2023-05-19T09:58:29.326Z,55.19
2023-05-19T09:59:32.117Z,53.65
2023-05-19T10:00:29.384Z,50.50
2023-05-19T10:01:29.341Z,50.35
2023-05-19T10:02:29.318Z,50.98
2023-05-19T10:03:29.501Z,52.79
2023-05-19T10:04:29.352Z,53.58
2023-05-19T10:05:29.251Z,52.31
2023-05-19T10:06:29.288Z,50.93
2023-05-19T10:07:29.281Z,50.82
2023-05-19T10:08:29.253Z,50.82
2023-05-19T10:09:29.377Z,51.61
2023-05-19T10:10:29.250Z,50.02
2023-05-19T10:11:29.262Z,51.58
2023-05-19T10:12:29.222Z,53.60
2023-05-19T10:13:29.245Z,52.79
2023-05-19T10:14:29.248Z,52.82
2023-05-19T10:15:29.188Z,51.81
2023-05-19T10:16:29.200Z,50.98
2023-05-19T10:17:29.201Z,50.80
2023-05-19T10:18:29.169Z,51.64
2023-05-19T10:19:29.456Z,53.70
2023-05-19T10:20:36.188Z,52.89
2023-05-19T10:21:29.167Z,50.90
2023-05-19T10:22:29.181Z,50.80
2023-05-19T10:23:29.184Z,52.62
2023-05-19T10:24:29.433Z,52.42
2023-05-19T10:25:29.115Z,52.87
2023-05-19T10:26:29.149Z,53.34
2023-05-19T10:27:29.096Z,51.15
2023-05-19T10:28:29.087Z,52.44
2023-05-19T10:29:29.144Z,51.38
2023-05-19T10:30:29.089Z,50.96
2023-05-19T10:31:29.123Z,50.85
2023-05-19T10:32:29.135Z,51.20
2023-05-19T10:33:29.068Z,50.70
2023-05-19T10:34:29.053Z,50.68
2023-05-19T10:35:29.055Z,51.99
2023-05-19T10:36:29.045Z,53.25
2023-05-19T10:37:29.025Z,50.33
2023-05-19T10:38:29.066Z,49.02
2023-05-19T10:39:29.036Z,49.67
2023-05-19T10:40:29.867Z,51.08
2023-05-19T10:41:29.016Z,51.61
2023-05-19T10:42:29.009Z,54.43
2023-05-19T10:43:28.987Z,52.59
2023-05-19T10:44:28.980Z,51.91
2023-05-19T10:45:28.969Z,52.89
2023-05-19T10:46:29.008Z,50.48
2023-05-19T10:47:29.004Z,53.12
2023-05-19T10:48:28.925Z,53.42
2023-05-19T10:49:28.936Z,52.44
2023-05-19T10:50:28.929Z,54.23
2023-05-19T10:51:28.910Z,52.31
2023-05-19T10:52:28.900Z,54.23
2023-05-19T10:53:28.899Z,51.89
2023-05-19T10:54:28.887Z,52.92
2023-05-19T10:55:29.103Z,53.20
2023-05-19T10:56:28.900Z,51.79
2023-05-19T10:57:28.868Z,53.58
2023-05-19T10:58:28.851Z,51.66
2023-05-19T10:59:29.648Z,52.26
2023-05-19T11:00:28.885Z,53.63
2023-05-19T11:01:28.920Z,53.75
2023-05-19T11:02:28.874Z,53.25
2023-05-19T11:03:29.010Z,54.28
2023-05-19T11:04:28.852Z,53.95
2023-05-19T11:05:28.792Z,52.39
2023-05-19T11:06:28.800Z,51.31
2023-05-19T11:07:28.782Z,54.30
2023-05-19T11:08:28.788Z,51.99
2023-05-19T11:09:39.626Z,54.10
2023-05-19T11:10:29.801Z,54.28
2023-05-19T11:11:28.750Z,50.68
2023-05-19T11:12:28.842Z,53.14
2023-05-19T11:13:28.750Z,53.60
2023-05-19T11:15:39.201Z,51.29
2023-05-19T11:16:39.268Z,50.73
2023-05-19T11:17:39.262Z,51.86
2023-05-19T11:18:39.210Z,53.14
2023-05-19T11:19:39.189Z,54.30
2023-05-19T11:20:39.315Z,51.36
2023-05-19T11:21:39.199Z,51.14
2023-05-19T11:22:39.249Z,53.20
2023-05-19T11:23:39.280Z,51.36
2023-05-19T11:24:39.160Z,53.20
2023-05-19T11:25:39.184Z,52.77
2023-05-19T11:26:39.148Z,52.82
2023-05-19T11:27:39.178Z,54.91
2023-05-19T11:28:39.116Z,53.60
2023-05-19T11:29:39.111Z,54.00
2023-05-19T11:30:39.120Z,55.11
2023-05-19T11:31:39.153Z,53.96
2023-05-19T11:32:39.236Z,54.96
2023-05-19T11:33:39.148Z,54.79
2023-05-19T11:34:39.062Z,54.99
2023-05-19T11:35:39.353Z,55.36
2023-05-19T11:36:39.080Z,54.48
2023-05-19T11:37:39.049Z,55.29
2023-05-19T11:38:39.028Z,55.29
2023-05-19T11:39:39.106Z,56.32
2023-05-19T11:40:39.041Z,54.99
2023-05-19T11:41:39.008Z,55.34
2023-05-19T11:42:38.993Z,54.13
2023-05-19T11:43:39.007Z,55.11
2023-05-19T11:44:38.997Z,54.50
2023-05-19T11:45:39.068Z,52.87
2023-05-19T11:46:39.299Z,54.63
2023-05-19T11:47:51.662Z,54.53
2023-05-19T11:48:39.975Z,54.43
2023-05-19T11:49:38.942Z,54.73
2023-05-19T11:50:38.999Z,53.32
2023-05-19T11:51:38.950Z,53.05
2023-05-19T11:52:38.969Z,52.14
2023-05-19T11:53:38.983Z,54.08
2023-05-19T11:54:38.939Z,53.14
2023-05-19T11:55:38.943Z,53.17
2023-05-19T11:56:38.895Z,52.74
2023-05-19T11:57:39.633Z,52.42
2023-05-19T11:58:38.889Z,50.80
2023-05-19T11:59:38.891Z,51.28
2023-05-19T12:00:38.867Z,50.27
2023-05-19T12:01:38.882Z,50.80
2023-05-19T12:02:38.973Z,50.70
2023-05-19T12:03:38.993Z,50.50
2023-05-19T12:04:38.934Z,48.36
2023-05-19T12:05:41.755Z,48.64
2023-05-19T12:06:38.915Z,48.52
2023-05-19T12:07:38.797Z,49.80
2023-05-19T12:08:38.801Z,50.40
2023-05-19T12:09:38.818Z,49.52
2023-05-19T12:10:38.778Z,49.93
2023-05-19T12:11:38.770Z,50.38
2023-05-19T12:12:38.919Z,50.60
2023-05-19T12:13:38.778Z,50.93
2023-05-19T12:14:38.828Z,49.98
2023-05-19T12:15:39.020Z,50.10
2023-05-19T12:16:38.792Z,50.93
2023-05-19T12:17:38.738Z,53.02
2023-05-19T12:18:38.737Z,49.90
2023-05-19T12:19:38.691Z,48.99
2023-05-19T12:20:38.687Z,50.40
2023-05-19T12:21:38.674Z,50.58
2023-05-19T12:22:38.665Z,50.38
2023-05-19T12:23:38.638Z,49.85
2023-05-19T12:24:38.695Z,49.10
2023-05-19T12:25:38.658Z,50.18
2023-05-19T12:26:38.681Z,50.58
2023-05-19T12:27:38.613Z,51.68
2023-05-19T12:28:38.615Z,50.86
2023-05-19T12:29:38.599Z,51.09
2023-05-19T12:30:38.839Z,49.88
2023-05-19T12:31:38.628Z,50.03
2023-05-19T12:32:38.626Z,49.15
2023-05-19T12:33:38.566Z,51.34
2023-05-19T12:34:38.567Z,48.90
2023-05-19T12:35:38.557Z,51.04
2023-05-19T12:36:38.560Z,50.71
2023-05-19T12:37:38.517Z,48.52
2023-05-19T12:38:38.524Z,49.47
2023-05-19T12:39:38.556Z,50.23
2023-05-19T12:40:38.517Z,50.58
2023-05-19T12:41:38.526Z,51.24
2023-05-19T12:42:38.501Z,49.68
2023-05-19T12:43:38.514Z,49.95
2023-05-19T12:44:38.480Z,49.45
2023-05-19T12:45:38.907Z,49.15
2023-05-19T12:46:38.461Z,49.02
2023-05-19T12:47:38.558Z,49.95
2023-05-19T12:48:38.444Z,50.48
2023-05-19T12:49:38.438Z,50.76
2023-05-19T12:50:38.441Z,50.63
2023-05-19T12:51:38.423Z,48.35
2023-05-19T12:52:38.418Z,49.53
2023-05-19T12:53:38.441Z,49.57